sensor_id;sensor_type;location;lat;lon;timestamp;temperature;humidity
77700;DHT22;66867;42.658;23.320;2023-05-07T00:00:00;13.9;73
77700;DHT22;66867;42.658;23.320;2023-05-07T00:01:00;13.9;74
77700;DHT22;66867;42.658;23.320;2023-05-07T00:02:00;13.9;74
77700;DHT22;66867;42.658;23.320;2023-05-07T00:03:00;13.8;74
77700;DHT22;66867;42.658;23.320;2023-05-07T00:04:00;13.8;74
77700;DHT22;66867;42.658;23.320;2023-05-07T00:05:01;13.9;74
77700;DHT22;66867;42.658;23.320;2023-05-07T00:06:00;13.9;74
77700;DHT22;66867;42.658;23.320;2023-05-07T00:07:00;13.9;75
77700;DHT22;66867;42.658;23.320;2023-05-07T00:08:00;13.9;75
77700;DHT22;66867;42.658;23.320;2023-05-07T00:09:00;13.8;75
77700;DHT22;66867;42.658;23.320;2023-05-07T00:10:00;13.8;75
77700;DHT22;66867;42.658;23.320;2023-05-07T00:11:00;13.8;75
77700;DHT22;66867;42.658;23.320;2023-05-07T00:12:00;13.8;75
77700;DHT22;66867;42.658;23.320;2023-05-07T00:13:00;13.8;75
77700;DHT22;66867;42.658;23.320;2023-05-07T00:14:00;13.8;75
77700;DHT22;66867;42.658;23.320;2023-05-07T00:15:01;13.8;75
77700;DHT22;66867;42.658;23.320;2023-05-07T00:16:01;13.8;75
77700;DHT22;66867;42.658;23.320;2023-05-07T00:17:00;13.7;75
77700;DHT22;66867;42.658;23.320;2023-05-07T00:18:00;13.7;75
77700;DHT22;66867;42.658;23.320;2023-05-07T00:19:00;13.7;75
77700;DHT22;66867;42.658;23.320;2023-05-07T00:20:00;13.7;75
77700;DHT22;66867;42.658;23.320;2023-05-07T00:21:00;13.7;75
77700;DHT22;66867;42.658;23.320;2023-05-07T00:22:00;13.7;75
77700;DHT22;66867;42.658;23.320;2023-05-07T00:23:00;13.7;75
77700;DHT22;66867;42.658;23.320;2023-05-07T00:24:00;13.7;75
77700;DHT22;66867;42.658;23.320;2023-05-07T00:25:00;13.7;75
77700;DHT22;66867;42.658;23.320;2023-05-07T00:26:00;13.6;75
77700;DHT22;66867;42.658;23.320;2023-05-07T00:27:00;13.7;75
77700;DHT22;66867;42.658;23.320;2023-05-07T00:28:00;13.7;75
77700;DHT22;66867;42.658;23.320;2023-05-07T00:29:00;13.6;75
77700;DHT22;66867;42.658;23.320;2023-05-07T00:30:00;13.6;75
77700;DHT22;66867;42.658;23.320;2023-05-07T00:31:00;13.6;75
77700;DHT22;66867;42.658;23.320;2023-05-07T00:32:00;13.6;75
77700;DHT22;66867;42.658;23.320;2023-05-07T00:33:00;13.5;75
77700;DHT22;66867;42.658;23.320;2023-05-07T00:34:00;13.5;75
77700;DHT22;66867;42.658;23.320;2023-05-07T00:35:00;13.5;75
77700;DHT22;66867;42.658;23.320;2023-05-07T00:36:00;13.5;75
77700;DHT22;66867;42.658;23.320;2023-05-07T00:37:01;13.5;75
77700;DHT22;66867;42.658;23.320;2023-05-07T00:38:00;13.5;75
77700;DHT22;66867;42.658;23.320;2023-05-07T00:39:00;13.5;75
77700;DHT22;66867;42.658;23.320;2023-05-07T00:40:00;13.5;75
77700;DHT22;66867;42.658;23.320;2023-05-07T00:41:00;13.5;75
77700;DHT22;66867;42.658;23.320;2023-05-07T00:42:00;13.5;75
77700;DHT22;66867;42.658;23.320;2023-05-07T00:43:00;13.4;75
77700;DHT22;66867;42.658;23.320;2023-05-07T00:44:00;13.4;75
77700;DHT22;66867;42.658;23.320;2023-05-07T00:45:00;13.3;75
77700;DHT22;66867;42.658;23.320;2023-05-07T00:46:00;13.4;75
77700;DHT22;66867;42.658;23.320;2023-05-07T00:47:01;13.3;75
77700;DHT22;66867;42.658;23.320;2023-05-07T00:48:00;13.4;75
77700;DHT22;66867;42.658;23.320;2023-05-07T00:49:00;13.3;75
77700;DHT22;66867;42.658;23.320;2023-05-07T00:50:00;13.3;75
77700;DHT22;66867;42.658;23.320;2023-05-07T00:51:00;13.3;75
77700;DHT22;66867;42.658;23.320;2023-05-07T00:52:00;13.3;75
77700;DHT22;66867;42.658;23.320;2023-05-07T00:53:00;13.2;75
77700;DHT22;66867;42.658;23.320;2023-05-07T00:54:01;13.2;75
77700;DHT22;66867;42.658;23.320;2023-05-07T00:55:02;13.2;75
77700;DHT22;66867;42.658;23.320;2023-05-07T00:56:00;13.1;75
77700;DHT22;66867;42.658;23.320;2023-05-07T00:57:01;13.1;75
77700;DHT22;66867;42.658;23.320;2023-05-07T00:58:00;13.1;75
77700;DHT22;66867;42.658;23.320;2023-05-07T00:59:02;13.1;75
77700;DHT22;66867;42.658;23.320;2023-05-07T01:00:00;13.1;75
77700;DHT22;66867;42.658;23.320;2023-05-07T01:01:00;13.0;75
77700;DHT22;66867;42.658;23.320;2023-05-07T01:02:00;13.0;76
77700;DHT22;66867;42.658;23.320;2023-05-07T01:03:00;13.0;76
77700;DHT22;66867;42.658;23.320;2023-05-07T01:04:00;13.0;76
77700;DHT22;66867;42.658;23.320;2023-05-07T01:05:00;12.9;76
77700;DHT22;66867;42.658;23.320;2023-05-07T01:06:00;12.9;76
77700;DHT22;66867;42.658;23.320;2023-05-07T01:07:00;12.9;76
77700;DHT22;66867;42.658;23.320;2023-05-07T01:08:00;12.9;75
77700;DHT22;66867;42.658;23.320;2023-05-07T01:09:00;12.9;75
77700;DHT22;66867;42.658;23.320;2023-05-07T01:10:00;12.9;75
77700;DHT22;66867;42.658;23.320;2023-05-07T01:11:00;12.9;75
77700;DHT22;66867;42.658;23.320;2023-05-07T01:12:00;12.8;76
77700;DHT22;66867;42.658;23.320;2023-05-07T01:13:00;12.8;76
77700;DHT22;66867;42.658;23.320;2023-05-07T01:14:00;12.8;76
77700;DHT22;66867;42.658;23.320;2023-05-07T01:15:00;12.8;76
77700;DHT22;66867;42.658;23.320;2023-05-07T01:16:00;12.8;75
77700;DHT22;66867;42.658;23.320;2023-05-07T01:17:00;12.7;76
77700;DHT22;66867;42.658;23.320;2023-05-07T01:18:00;12.7;76
77700;DHT22;66867;42.658;23.320;2023-05-07T01:19:00;12.7;76
77700;DHT22;66867;42.658;23.320;2023-05-07T01:20:00;12.7;76
77700;DHT22;66867;42.658;23.320;2023-05-07T01:21:00;12.7;76
77700;DHT22;66867;42.658;23.320;2023-05-07T01:22:02;12.7;76
77700;DHT22;66867;42.658;23.320;2023-05-07T01:23:00;12.7;76
77700;DHT22;66867;42.658;23.320;2023-05-07T01:24:00;12.7;76
77700;DHT22;66867;42.658;23.320;2023-05-07T01:25:00;12.7;76
77700;DHT22;66867;42.658;23.320;2023-05-07T01:26:00;12.6;76
77700;DHT22;66867;42.658;23.320;2023-05-07T01:27:00;12.6;76
77700;DHT22;66867;42.658;23.320;2023-05-07T01:28:00;12.6;76
77700;DHT22;66867;42.658;23.320;2023-05-07T01:29:00;12.6;76
77700;DHT22;66867;42.658;23.320;2023-05-07T01:30:00;12.6;76
77700;DHT22;66867;42.658;23.320;2023-05-07T01:31:00;12.5;76
77700;DHT22;66867;42.658;23.320;2023-05-07T01:32:00;12.5;76
77700;DHT22;66867;42.658;23.320;2023-05-07T01:33:04;12.5;76
77700;DHT22;66867;42.658;23.320;2023-05-07T01:34:01;12.5;76
77700;DHT22;66867;42.658;23.320;2023-05-07T01:35:00;12.4;76
77700;DHT22;66867;42.658;23.320;2023-05-07T01:36:00;12.4;76
77700;DHT22;66867;42.658;23.320;2023-05-07T01:37:00;12.4;76
77700;DHT22;66867;42.658;23.320;2023-05-07T01:38:00;12.4;76
77700;DHT22;66867;42.658;23.320;2023-05-07T01:39:00;12.4;76
77700;DHT22;66867;42.658;23.320;2023-05-07T01:40:01;12.4;77
77700;DHT22;66867;42.658;23.320;2023-05-07T01:41:00;12.4;77
77700;DHT22;66867;42.658;23.320;2023-05-07T01:42:00;12.4;77
77700;DHT22;66867;42.658;23.320;2023-05-07T01:43:01;12.4;77
77700;DHT22;66867;42.658;23.320;2023-05-07T01:44:00;12.4;77
77700;DHT22;66867;42.658;23.320;2023-05-07T01:45:00;12.4;77
77700;DHT22;66867;42.658;23.320;2023-05-07T01:46:00;12.4;77
77700;DHT22;66867;42.658;23.320;2023-05-07T01:47:01;12.4;77
77700;DHT22;66867;42.658;23.320;2023-05-07T01:48:00;12.4;77
77700;DHT22;66867;42.658;23.320;2023-05-07T01:49:00;12.3;77
77700;DHT22;66867;42.658;23.320;2023-05-07T01:50:00;12.3;77
77700;DHT22;66867;42.658;23.320;2023-05-07T01:51:00;12.3;77
77700;DHT22;66867;42.658;23.320;2023-05-07T01:52:00;12.3;77
77700;DHT22;66867;42.658;23.320;2023-05-07T01:53:00;12.3;77
77700;DHT22;66867;42.658;23.320;2023-05-07T01:54:00;12.3;77
77700;DHT22;66867;42.658;23.320;2023-05-07T01:55:00;12.3;77
77700;DHT22;66867;42.658;23.320;2023-05-07T01:56:00;12.3;77
77700;DHT22;66867;42.658;23.320;2023-05-07T01:57:00;12.3;77
77700;DHT22;66867;42.658;23.320;2023-05-07T01:58:00;12.2;77
77700;DHT22;66867;42.658;23.320;2023-05-07T01:59:00;12.2;77
77700;DHT22;66867;42.658;23.320;2023-05-07T02:00:00;12.2;77
77700;DHT22;66867;42.658;23.320;2023-05-07T02:01:00;12.2;77
77700;DHT22;66867;42.658;23.320;2023-05-07T02:02:00;12.2;77
77700;DHT22;66867;42.658;23.320;2023-05-07T02:03:00;12.3;77
77700;DHT22;66867;42.658;23.320;2023-05-07T02:04:00;12.3;77
77700;DHT22;66867;42.658;23.320;2023-05-07T02:05:00;12.3;78
77700;DHT22;66867;42.658;23.320;2023-05-07T02:06:00;12.3;78
77700;DHT22;66867;42.658;23.320;2023-05-07T02:07:00;12.3;79
77700;DHT22;66867;42.658;23.320;2023-05-07T02:08:00;12.3;79
77700;DHT22;66867;42.658;23.320;2023-05-07T02:09:00;12.3;79
77700;DHT22;66867;42.658;23.320;2023-05-07T02:10:00;12.3;80
77700;DHT22;66867;42.658;23.320;2023-05-07T02:11:00;12.3;80
77700;DHT22;66867;42.658;23.320;2023-05-07T02:12:00;12.3;80
77700;DHT22;66867;42.658;23.320;2023-05-07T02:13:00;12.3;80
77700;DHT22;66867;42.658;23.320;2023-05-07T02:14:00;12.3;80
77700;DHT22;66867;42.658;23.320;2023-05-07T02:15:00;12.3;80
77700;DHT22;66867;42.658;23.320;2023-05-07T02:16:00;12.3;80
77700;DHT22;66867;42.658;23.320;2023-05-07T02:17:00;12.3;80
77700;DHT22;66867;42.658;23.320;2023-05-07T02:18:01;12.4;80
77700;DHT22;66867;42.658;23.320;2023-05-07T02:19:00;12.4;80
77700;DHT22;66867;42.658;23.320;2023-05-07T02:20:00;12.5;79
77700;DHT22;66867;42.658;23.320;2023-05-07T02:21:00;12.5;79
77700;DHT22;66867;42.658;23.320;2023-05-07T02:22:00;12.5;79
77700;DHT22;66867;42.658;23.320;2023-05-07T02:23:00;12.5;79
77700;DHT22;66867;42.658;23.320;2023-05-07T02:24:00;12.5;79
77700;DHT22;66867;42.658;23.320;2023-05-07T02:25:00;12.5;78
77700;DHT22;66867;42.658;23.320;2023-05-07T02:26:00;12.4;78
77700;DHT22;66867;42.658;23.320;2023-05-07T02:27:00;12.4;78
77700;DHT22;66867;42.658;23.320;2023-05-07T02:28:00;12.4;77
77700;DHT22;66867;42.658;23.320;2023-05-07T02:29:00;12.4;78
77700;DHT22;66867;42.658;23.320;2023-05-07T02:30:00;12.4;78
77700;DHT22;66867;42.658;23.320;2023-05-07T02:32:00;12.4;78
77700;DHT22;66867;42.658;23.320;2023-05-07T02:33:00;12.4;78
77700;DHT22;66867;42.658;23.320;2023-05-07T02:34:00;12.4;78
77700;DHT22;66867;42.658;23.320;2023-05-07T02:35:00;12.4;78
77700;DHT22;66867;42.658;23.320;2023-05-07T02:36:05;12.4;78
77700;DHT22;66867;42.658;23.320;2023-05-07T02:37:00;12.4;78
77700;DHT22;66867;42.658;23.320;2023-05-07T02:38:00;12.4;78
77700;DHT22;66867;42.658;23.320;2023-05-07T02:39:00;12.4;78
77700;DHT22;66867;42.658;23.320;2023-05-07T02:40:00;12.4;78
77700;DHT22;66867;42.658;23.320;2023-05-07T02:41:00;12.4;78
77700;DHT22;66867;42.658;23.320;2023-05-07T02:42:00;12.3;78
77700;DHT22;66867;42.658;23.320;2023-05-07T02:43:00;12.3;78
77700;DHT22;66867;42.658;23.320;2023-05-07T02:44:00;12.3;78
77700;DHT22;66867;42.658;23.320;2023-05-07T02:45:00;12.3;78
77700;DHT22;66867;42.658;23.320;2023-05-07T02:46:01;12.3;78
77700;DHT22;66867;42.658;23.320;2023-05-07T02:47:00;12.3;78
77700;DHT22;66867;42.658;23.320;2023-05-07T02:48:00;12.3;78
77700;DHT22;66867;42.658;23.320;2023-05-07T02:49:00;12.3;78
77700;DHT22;66867;42.658;23.320;2023-05-07T02:50:00;12.3;78
77700;DHT22;66867;42.658;23.320;2023-05-07T02:51:00;12.3;78
77700;DHT22;66867;42.658;23.320;2023-05-07T02:52:00;12.3;78
77700;DHT22;66867;42.658;23.320;2023-05-07T02:53:00;12.3;78
77700;DHT22;66867;42.658;23.320;2023-05-07T02:54:00;12.3;78
77700;DHT22;66867;42.658;23.320;2023-05-07T02:55:00;12.3;78
77700;DHT22;66867;42.658;23.320;2023-05-07T02:56:00;12.3;78
77700;DHT22;66867;42.658;23.320;2023-05-07T02:57:00;12.3;78
77700;DHT22;66867;42.658;23.320;2023-05-07T02:58:00;12.3;78
77700;DHT22;66867;42.658;23.320;2023-05-07T02:59:00;12.3;78
77700;DHT22;66867;42.658;23.320;2023-05-07T03:00:06;12.3;78
77700;DHT22;66867;42.658;23.320;2023-05-07T03:01:00;12.3;78
77700;DHT22;66867;42.658;23.320;2023-05-07T03:02:00;12.3;78
77700;DHT22;66867;42.658;23.320;2023-05-07T03:03:00;12.3;78
77700;DHT22;66867;42.658;23.320;2023-05-07T03:04:00;12.3;78
77700;DHT22;66867;42.658;23.320;2023-05-07T03:05:00;12.3;79
77700;DHT22;66867;42.658;23.320;2023-05-07T03:06:00;12.3;79
77700;DHT22;66867;42.658;23.320;2023-05-07T03:07:00;12.2;78
77700;DHT22;66867;42.658;23.320;2023-05-07T03:08:00;12.2;78
77700;DHT22;66867;42.658;23.320;2023-05-07T03:09:00;12.2;78
77700;DHT22;66867;42.658;23.320;2023-05-07T03:10:00;12.2;79
77700;DHT22;66867;42.658;23.320;2023-05-07T03:11:00;12.2;78
77700;DHT22;66867;42.658;23.320;2023-05-07T03:12:00;12.2;78
77700;DHT22;66867;42.658;23.320;2023-05-07T03:13:00;12.2;78
77700;DHT22;66867;42.658;23.320;2023-05-07T03:14:00;12.2;79
77700;DHT22;66867;42.658;23.320;2023-05-07T03:15:00;12.2;79
77700;DHT22;66867;42.658;23.320;2023-05-07T03:16:00;12.2;79
77700;DHT22;66867;42.658;23.320;2023-05-07T03:17:00;12.2;79
77700;DHT22;66867;42.658;23.320;2023-05-07T03:18:00;12.1;79
77700;DHT22;66867;42.658;23.320;2023-05-07T03:19:00;12.1;79
77700;DHT22;66867;42.658;23.320;2023-05-07T03:20:00;12.0;79
77700;DHT22;66867;42.658;23.320;2023-05-07T03:21:00;12.1;79
77700;DHT22;66867;42.658;23.320;2023-05-07T03:22:00;12.1;79
77700;DHT22;66867;42.658;23.320;2023-05-07T03:23:00;12.1;79
77700;DHT22;66867;42.658;23.320;2023-05-07T03:24:00;12.1;79
77700;DHT22;66867;42.658;23.320;2023-05-07T03:25:00;12.0;79
77700;DHT22;66867;42.658;23.320;2023-05-07T03:26:00;12.1;79
77700;DHT22;66867;42.658;23.320;2023-05-07T03:27:00;12.1;79
77700;DHT22;66867;42.658;23.320;2023-05-07T03:28:00;12.1;79
77700;DHT22;66867;42.658;23.320;2023-05-07T03:29:00;12.1;80
77700;DHT22;66867;42.658;23.320;2023-05-07T03:30:00;12.1;80
77700;DHT22;66867;42.658;23.320;2023-05-07T03:31:00;12.1;80
77700;DHT22;66867;42.658;23.320;2023-05-07T03:32:00;12.1;80
77700;DHT22;66867;42.658;23.320;2023-05-07T03:33:00;12.1;79
77700;DHT22;66867;42.658;23.320;2023-05-07T03:34:00;12.1;79
77700;DHT22;66867;42.658;23.320;2023-05-07T03:35:02;12.1;79
77700;DHT22;66867;42.658;23.320;2023-05-07T03:36:00;12.1;80
77700;DHT22;66867;42.658;23.320;2023-05-07T03:37:00;12.1;80
77700;DHT22;66867;42.658;23.320;2023-05-07T03:38:00;12.1;80
77700;DHT22;66867;42.658;23.320;2023-05-07T03:39:00;12.1;80
77700;DHT22;66867;42.658;23.320;2023-05-07T03:40:00;12.1;79
77700;DHT22;66867;42.658;23.320;2023-05-07T03:41:00;12.1;79
77700;DHT22;66867;42.658;23.320;2023-05-07T03:42:00;12.1;80
77700;DHT22;66867;42.658;23.320;2023-05-07T03:43:00;12.1;79
77700;DHT22;66867;42.658;23.320;2023-05-07T03:44:00;12.1;79
77700;DHT22;66867;42.658;23.320;2023-05-07T03:45:00;12.1;79
77700;DHT22;66867;42.658;23.320;2023-05-07T03:46:00;12.1;79
77700;DHT22;66867;42.658;23.320;2023-05-07T03:47:00;12.1;79
77700;DHT22;66867;42.658;23.320;2023-05-07T03:48:00;12.1;79
77700;DHT22;66867;42.658;23.320;2023-05-07T03:49:00;12.1;79
77700;DHT22;66867;42.658;23.320;2023-05-07T03:50:00;12.1;79
77700;DHT22;66867;42.658;23.320;2023-05-07T03:51:00;12.1;79
77700;DHT22;66867;42.658;23.320;2023-05-07T03:52:00;12.1;79
77700;DHT22;66867;42.658;23.320;2023-05-07T03:53:00;12.1;80
77700;DHT22;66867;42.658;23.320;2023-05-07T03:54:00;12.1;80
77700;DHT22;66867;42.658;23.320;2023-05-07T03:55:00;12.1;80
77700;DHT22;66867;42.658;23.320;2023-05-07T03:56:00;12.1;80
77700;DHT22;66867;42.658;23.320;2023-05-07T03:57:00;12.1;80
77700;DHT22;66867;42.658;23.320;2023-05-07T03:58:00;12.1;80
77700;DHT22;66867;42.658;23.320;2023-05-07T03:59:00;12.1;80
77700;DHT22;66867;42.658;23.320;2023-05-07T04:00:00;12.1;80
77700;DHT22;66867;42.658;23.320;2023-05-07T04:01:00;12.1;80
77700;DHT22;66867;42.658;23.320;2023-05-07T04:02:00;12.1;80
77700;DHT22;66867;42.658;23.320;2023-05-07T04:03:00;12.1;80
77700;DHT22;66867;42.658;23.320;2023-05-07T04:04:00;12.1;80
77700;DHT22;66867;42.658;23.320;2023-05-07T04:05:00;12.1;80
77700;DHT22;66867;42.658;23.320;2023-05-07T04:06:00;12.1;80
77700;DHT22;66867;42.658;23.320;2023-05-07T04:07:00;12.1;80
77700;DHT22;66867;42.658;23.320;2023-05-07T04:08:00;12.1;80
77700;DHT22;66867;42.658;23.320;2023-05-07T04:09:00;12.1;80
77700;DHT22;66867;42.658;23.320;2023-05-07T04:10:00;12.1;80
77700;DHT22;66867;42.658;23.320;2023-05-07T04:11:01;12.1;80
77700;DHT22;66867;42.658;23.320;2023-05-07T04:12:00;12.2;80
77700;DHT22;66867;42.658;23.320;2023-05-07T04:13:00;12.2;80
77700;DHT22;66867;42.658;23.320;2023-05-07T04:14:00;12.2;80
77700;DHT22;66867;42.658;23.320;2023-05-07T04:15:00;12.2;80
77700;DHT22;66867;42.658;23.320;2023-05-07T04:16:01;12.2;80
77700;DHT22;66867;42.658;23.320;2023-05-07T04:17:00;12.2;80
77700;DHT22;66867;42.658;23.320;2023-05-07T04:18:00;12.2;80
77700;DHT22;66867;42.658;23.320;2023-05-07T04:19:00;12.2;80
77700;DHT22;66867;42.658;23.320;2023-05-07T04:20:00;12.3;80
77700;DHT22;66867;42.658;23.320;2023-05-07T04:21:00;12.3;80
77700;DHT22;66867;42.658;23.320;2023-05-07T04:22:00;12.3;80
77700;DHT22;66867;42.658;23.320;2023-05-07T04:23:00;12.3;80
77700;DHT22;66867;42.658;23.320;2023-05-07T04:24:00;12.3;80
77700;DHT22;66867;42.658;23.320;2023-05-07T04:25:00;12.3;80
77700;DHT22;66867;42.658;23.320;2023-05-07T04:26:00;12.3;80
77700;DHT22;66867;42.658;23.320;2023-05-07T04:27:00;12.3;80
77700;DHT22;66867;42.658;23.320;2023-05-07T04:28:00;12.3;80
77700;DHT22;66867;42.658;23.320;2023-05-07T04:29:00;12.3;80
77700;DHT22;66867;42.658;23.320;2023-05-07T04:30:00;12.3;80
77700;DHT22;66867;42.658;23.320;2023-05-07T04:31:00;12.3;80
77700;DHT22;66867;42.658;23.320;2023-05-07T04:32:00;12.4;80
77700;DHT22;66867;42.658;23.320;2023-05-07T04:33:00;12.4;80
77700;DHT22;66867;42.658;23.320;2023-05-07T04:34:00;12.4;80
77700;DHT22;66867;42.658;23.320;2023-05-07T04:35:00;12.4;80
77700;DHT22;66867;42.658;23.320;2023-05-07T04:36:02;12.4;80
77700;DHT22;66867;42.658;23.320;2023-05-07T04:37:00;12.4;80
77700;DHT22;66867;42.658;23.320;2023-05-07T04:38:00;12.5;80
77700;DHT22;66867;42.658;23.320;2023-05-07T04:39:00;12.5;80
77700;DHT22;66867;42.658;23.320;2023-05-07T04:40:00;12.5;80
77700;DHT22;66867;42.658;23.320;2023-05-07T04:41:04;12.5;80
77700;DHT22;66867;42.658;23.320;2023-05-07T04:42:00;12.5;80
77700;DHT22;66867;42.658;23.320;2023-05-07T04:43:00;12.5;80
77700;DHT22;66867;42.658;23.320;2023-05-07T04:44:00;12.5;80
77700;DHT22;66867;42.658;23.320;2023-05-07T04:45:01;12.6;79
77700;DHT22;66867;42.658;23.320;2023-05-07T04:46:00;12.6;80
77700;DHT22;66867;42.658;23.320;2023-05-07T04:47:00;12.6;80
77700;DHT22;66867;42.658;23.320;2023-05-07T04:48:00;12.6;80
77700;DHT22;66867;42.658;23.320;2023-05-07T04:49:00;12.6;79
77700;DHT22;66867;42.658;23.320;2023-05-07T04:50:00;12.6;79
77700;DHT22;66867;42.658;23.320;2023-05-07T04:51:00;12.6;79
77700;DHT22;66867;42.658;23.320;2023-05-07T04:52:00;12.7;79
77700;DHT22;66867;42.658;23.320;2023-05-07T04:53:00;12.7;80
77700;DHT22;66867;42.658;23.320;2023-05-07T04:54:00;12.7;79
77700;DHT22;66867;42.658;23.320;2023-05-07T04:55:00;12.7;79
77700;DHT22;66867;42.658;23.320;2023-05-07T04:56:00;12.7;79
77700;DHT22;66867;42.658;23.320;2023-05-07T04:57:00;12.7;79
77700;DHT22;66867;42.658;23.320;2023-05-07T04:58:00;12.8;79
77700;DHT22;66867;42.658;23.320;2023-05-07T04:59:00;12.8;80
77700;DHT22;66867;42.658;23.320;2023-05-07T05:00:00;12.8;79
77700;DHT22;66867;42.658;23.320;2023-05-07T05:01:00;12.9;79
77700;DHT22;66867;42.658;23.320;2023-05-07T05:02:00;12.9;80
77700;DHT22;66867;42.658;23.320;2023-05-07T05:03:00;12.9;80
77700;DHT22;66867;42.658;23.320;2023-05-07T05:04:00;12.9;80
77700;DHT22;66867;42.658;23.320;2023-05-07T05:05:00;12.9;80
77700;DHT22;66867;42.658;23.320;2023-05-07T05:06:00;12.9;80
77700;DHT22;66867;42.658;23.320;2023-05-07T05:07:00;13.0;80
77700;DHT22;66867;42.658;23.320;2023-05-07T05:08:00;13.0;80
77700;DHT22;66867;42.658;23.320;2023-05-07T05:09:00;13.0;80
77700;DHT22;66867;42.658;23.320;2023-05-07T05:10:01;13.0;80
77700;DHT22;66867;42.658;23.320;2023-05-07T05:11:01;13.1;80
77700;DHT22;66867;42.658;23.320;2023-05-07T05:12:00;13.1;80
77700;DHT22;66867;42.658;23.320;2023-05-07T05:13:00;13.1;80
77700;DHT22;66867;42.658;23.320;2023-05-07T05:14:00;13.1;79
77700;DHT22;66867;42.658;23.320;2023-05-07T05:15:00;13.2;79
77700;DHT22;66867;42.658;23.320;2023-05-07T05:16:00;13.2;80
77700;DHT22;66867;42.658;23.320;2023-05-07T05:17:00;13.3;79
77700;DHT22;66867;42.658;23.320;2023-05-07T05:18:00;13.3;79
77700;DHT22;66867;42.658;23.320;2023-05-07T05:19:00;13.3;79
77700;DHT22;66867;42.658;23.320;2023-05-07T05:20:00;13.4;80
77700;DHT22;66867;42.658;23.320;2023-05-07T05:21:00;13.4;80
77700;DHT22;66867;42.658;23.320;2023-05-07T05:22:00;13.5;79
77700;DHT22;66867;42.658;23.320;2023-05-07T05:23:00;13.5;79
77700;DHT22;66867;42.658;23.320;2023-05-07T05:24:00;13.5;79
77700;DHT22;66867;42.658;23.320;2023-05-07T05:25:00;13.5;79
77700;DHT22;66867;42.658;23.320;2023-05-07T05:26:00;13.6;79
77700;DHT22;66867;42.658;23.320;2023-05-07T05:27:00;13.6;79
77700;DHT22;66867;42.658;23.320;2023-05-07T05:28:00;13.6;79
77700;DHT22;66867;42.658;23.320;2023-05-07T05:29:00;13.7;79
77700;DHT22;66867;42.658;23.320;2023-05-07T05:30:00;13.7;79
77700;DHT22;66867;42.658;23.320;2023-05-07T05:31:00;13.8;78
77700;DHT22;66867;42.658;23.320;2023-05-07T05:32:00;13.8;78
77700;DHT22;66867;42.658;23.320;2023-05-07T05:33:00;13.9;78
77700;DHT22;66867;42.658;23.320;2023-05-07T05:34:00;13.9;78
77700;DHT22;66867;42.658;23.320;2023-05-07T05:35:00;14.0;78
77700;DHT22;66867;42.658;23.320;2023-05-07T05:36:00;14.0;78
77700;DHT22;66867;42.658;23.320;2023-05-07T05:37:00;14.0;78
77700;DHT22;66867;42.658;23.320;2023-05-07T05:38:00;14.1;78
77700;DHT22;66867;42.658;23.320;2023-05-07T05:39:00;14.1;77
77700;DHT22;66867;42.658;23.320;2023-05-07T05:40:00;14.1;77
77700;DHT22;66867;42.658;23.320;2023-05-07T05:41:00;14.2;76
77700;DHT22;66867;42.658;23.320;2023-05-07T05:42:00;14.2;76
77700;DHT22;66867;42.658;23.320;2023-05-07T05:43:00;14.2;77
77700;DHT22;66867;42.658;23.320;2023-05-07T05:44:00;14.2;77
77700;DHT22;66867;42.658;23.320;2023-05-07T05:45:00;14.3;77
77700;DHT22;66867;42.658;23.320;2023-05-07T05:46:00;14.4;77
77700;DHT22;66867;42.658;23.320;2023-05-07T05:47:00;14.4;77
77700;DHT22;66867;42.658;23.320;2023-05-07T05:48:00;14.4;76
77700;DHT22;66867;42.658;23.320;2023-05-07T05:49:00;14.4;76
77700;DHT22;66867;42.658;23.320;2023-05-07T05:50:00;14.5;76
77700;DHT22;66867;42.658;23.320;2023-05-07T05:51:00;14.5;75
77700;DHT22;66867;42.658;23.320;2023-05-07T05:52:00;14.5;76
77700;DHT22;66867;42.658;23.320;2023-05-07T05:53:00;14.6;75
77700;DHT22;66867;42.658;23.320;2023-05-07T05:54:00;14.6;75
77700;DHT22;66867;42.658;23.320;2023-05-07T05:55:00;14.6;74
77700;DHT22;66867;42.658;23.320;2023-05-07T05:56:00;14.7;74
77700;DHT22;66867;42.658;23.320;2023-05-07T05:57:00;14.7;74
77700;DHT22;66867;42.658;23.320;2023-05-07T05:58:00;14.7;74
77700;DHT22;66867;42.658;23.320;2023-05-07T05:59:00;14.8;75
77700;DHT22;66867;42.658;23.320;2023-05-07T06:00:00;14.8;75
77700;DHT22;66867;42.658;23.320;2023-05-07T06:01:00;14.9;74
77700;DHT22;66867;42.658;23.320;2023-05-07T06:02:00;14.9;74
77700;DHT22;66867;42.658;23.320;2023-05-07T06:03:00;14.9;74
77700;DHT22;66867;42.658;23.320;2023-05-07T06:04:00;15.0;74
77700;DHT22;66867;42.658;23.320;2023-05-07T06:05:00;15.0;74
77700;DHT22;66867;42.658;23.320;2023-05-07T06:06:00;15.0;74
77700;DHT22;66867;42.658;23.320;2023-05-07T06:07:00;15.1;73
77700;DHT22;66867;42.658;23.320;2023-05-07T06:08:00;15.1;73
77700;DHT22;66867;42.658;23.320;2023-05-07T06:09:00;15.2;73
77700;DHT22;66867;42.658;23.320;2023-05-07T06:10:00;15.2;73
77700;DHT22;66867;42.658;23.320;2023-05-07T06:11:00;15.3;72
77700;DHT22;66867;42.658;23.320;2023-05-07T06:12:00;15.3;73
77700;DHT22;66867;42.658;23.320;2023-05-07T06:13:00;15.4;73
77700;DHT22;66867;42.658;23.320;2023-05-07T06:14:00;15.5;73
77700;DHT22;66867;42.658;23.320;2023-05-07T06:15:00;15.5;73
77700;DHT22;66867;42.658;23.320;2023-05-07T06:16:00;15.5;72
77700;DHT22;66867;42.658;23.320;2023-05-07T06:17:00;15.6;72
77700;DHT22;66867;42.658;23.320;2023-05-07T06:18:00;15.6;71
77700;DHT22;66867;42.658;23.320;2023-05-07T06:19:00;15.6;71
77700;DHT22;66867;42.658;23.320;2023-05-07T06:20:00;15.6;71
77700;DHT22;66867;42.658;23.320;2023-05-07T06:21:00;15.7;71
77700;DHT22;66867;42.658;23.320;2023-05-07T06:22:00;15.8;72
77700;DHT22;66867;42.658;23.320;2023-05-07T06:23:00;15.8;71
77700;DHT22;66867;42.658;23.320;2023-05-07T06:24:00;15.8;72
77700;DHT22;66867;42.658;23.320;2023-05-07T06:25:00;15.9;71
77700;DHT22;66867;42.658;23.320;2023-05-07T06:26:00;16.0;71
77700;DHT22;66867;42.658;23.320;2023-05-07T06:27:00;16.0;72
77700;DHT22;66867;42.658;23.320;2023-05-07T06:28:00;16.0;71
77700;DHT22;66867;42.658;23.320;2023-05-07T06:29:00;16.1;71
77700;DHT22;66867;42.658;23.320;2023-05-07T06:30:00;16.2;71
77700;DHT22;66867;42.658;23.320;2023-05-07T06:31:12;16.2;70
77700;DHT22;66867;42.658;23.320;2023-05-07T06:32:08;16.2;71
77700;DHT22;66867;42.658;23.320;2023-05-07T06:33:00;16.2;71
77700;DHT22;66867;42.658;23.320;2023-05-07T06:34:00;16.3;70
77700;DHT22;66867;42.658;23.320;2023-05-07T06:35:00;16.3;69
77700;DHT22;66867;42.658;23.320;2023-05-07T06:36:00;16.3;70
77700;DHT22;66867;42.658;23.320;2023-05-07T06:37:00;16.4;69
77700;DHT22;66867;42.658;23.320;2023-05-07T06:38:00;16.4;70